sensor_id;sensor_type;location;lat;lon;timestamp;P1;durP1;ratioP1;P2;durP2;ratioP2
7116;SDS011;3600;48.568;7.870;2023-01-23T00:01:22;13.67;;;11.33;;
7116;SDS011;3600;48.568;7.870;2023-01-23T00:03:52;14.60;;;12.00;;
7116;SDS011;3600;48.568;7.870;2023-01-23T00:06:20;15.23;;;12.10;;
7116;SDS011;3600;48.568;7.870;2023-01-23T00:08:47;14.70;;;12.47;;
7116;SDS011;3600;48.568;7.870;2023-01-23T00:11:15;18.00;;;13.03;;
7116;SDS011;3600;48.568;7.870;2023-01-23T00:13:46;15.17;;;12.23;;
7116;SDS011;3600;48.568;7.870;2023-01-23T00:16:17;14.63;;;11.93;;
7116;SDS011;3600;48.568;7.870;2023-01-23T00:18:50;14.33;;;11.67;;
7116;SDS011;3600;48.568;7.870;2023-01-23T00:21:19;15.97;;;11.97;;
7116;SDS011;3600;48.568;7.870;2023-01-23T00:23:48;13.67;;;12.10;;
7116;SDS011;3600;48.568;7.870;2023-01-23T00:26:21;13.40;;;11.17;;
7116;SDS011;3600;48.568;7.870;2023-01-23T00:28:49;13.40;;;11.33;;
7116;SDS011;3600;48.568;7.870;2023-01-23T00:31:21;13.47;;;11.93;;
7116;SDS011;3600;48.568;7.870;2023-01-23T00:33:57;13.03;;;11.70;;
7116;SDS011;3600;48.568;7.870;2023-01-23T00:36:29;13.57;;;11.30;;
7116;SDS011;3600;48.568;7.870;2023-01-23T00:38:58;11.80;;;10.60;;
7116;SDS011;3600;48.568;7.870;2023-01-23T00:41:25;13.97;;;11.20;;
7116;SDS011;3600;48.568;7.870;2023-01-23T00:43:51;12.50;;;10.57;;
7116;SDS011;3600;48.568;7.870;2023-01-23T00:46:19;12.80;;;10.93;;
7116;SDS011;3600;48.568;7.870;2023-01-23T00:48:46;13.63;;;10.60;;
7116;SDS011;3600;48.568;7.870;2023-01-23T00:51:13;13.67;;;10.63;;
7116;SDS011;3600;48.568;7.870;2023-01-23T00:53:40;13.50;;;10.90;;
7116;SDS011;3600;48.568;7.870;2023-01-23T00:56:07;13.13;;;10.83;;
7116;SDS011;3600;48.568;7.870;2023-01-23T00:58:34;14.83;;;11.70;;
7116;SDS011;3600;48.568;7.870;2023-01-23T01:01:01;12.17;;;10.03;;
7116;SDS011;3600;48.568;7.870;2023-01-23T01:03:28;12.17;;;10.87;;
7116;SDS011;3600;48.568;7.870;2023-01-23T01:05:55;12.50;;;10.43;;
7116;SDS011;3600;48.568;7.870;2023-01-23T01:08:22;13.30;;;11.47;;
7116;SDS011;3600;48.568;7.870;2023-01-23T01:10:48;13.43;;;10.67;;
7116;SDS011;3600;48.568;7.870;2023-01-23T01:13:15;13.53;;;11.63;;
7116;SDS011;3600;48.568;7.870;2023-01-23T01:15:47;13.23;;;10.47;;
7116;SDS011;3600;48.568;7.870;2023-01-23T01:18:15;11.97;;;10.67;;
7116;SDS011;3600;48.568;7.870;2023-01-23T01:20:42;11.70;;;10.50;;
7116;SDS011;3600;48.568;7.870;2023-01-23T01:23:09;14.13;;;12.03;;
7116;SDS011;3600;48.568;7.870;2023-01-23T01:25:36;14.67;;;12.30;;
7116;SDS011;3600;48.568;7.870;2023-01-23T01:28:03;13.50;;;10.53;;
7116;SDS011;3600;48.568;7.870;2023-01-23T01:30:30;13.87;;;11.57;;
7116;SDS011;3600;48.568;7.870;2023-01-23T01:32:57;16.30;;;12.63;;
7116;SDS011;3600;48.568;7.870;2023-01-23T01:35:24;15.50;;;12.03;;
7116;SDS011;3600;48.568;7.870;2023-01-23T01:37:50;15.40;;;12.17;;
7116;SDS011;3600;48.568;7.870;2023-01-23T01:40:19;15.27;;;12.23;;
7116;SDS011;3600;48.568;7.870;2023-01-23T01:42:58;14.80;;;11.97;;
7116;SDS011;3600;48.568;7.870;2023-01-23T01:48:23;15.23;;;12.33;;
7116;SDS011;3600;48.568;7.870;2023-01-23T01:50:51;14.47;;;11.47;;
7116;SDS011;3600;48.568;7.870;2023-01-23T01:53:19;13.60;;;11.60;;
7116;SDS011;3600;48.568;7.870;2023-01-23T01:55:48;14.07;;;11.90;;
7116;SDS011;3600;48.568;7.870;2023-01-23T01:58:15;16.60;;;12.87;;
7116;SDS011;3600;48.568;7.870;2023-01-23T02:00:42;17.00;;;13.00;;
7116;SDS011;3600;48.568;7.870;2023-01-23T02:03:09;13.30;;;11.90;;
7116;SDS011;3600;48.568;7.870;2023-01-23T02:05:38;13.43;;;11.10;;
7116;SDS011;3600;48.568;7.870;2023-01-23T02:08:08;14.23;;;12.10;;
7116;SDS011;3600;48.568;7.870;2023-01-23T02:10:47;15.17;;;12.37;;
7116;SDS011;3600;48.568;7.870;2023-01-23T02:13:25;13.93;;;11.53;;
7116;SDS011;3600;48.568;7.870;2023-01-23T02:15:56;13.97;;;12.53;;
7116;SDS011;3600;48.568;7.870;2023-01-23T02:18:26;13.73;;;11.53;;
7116;SDS011;3600;48.568;7.870;2023-01-23T02:20:54;15.97;;;12.57;;
7116;SDS011;3600;48.568;7.870;2023-01-23T02:23:31;15.90;;;12.93;;
7116;SDS011;3600;48.568;7.870;2023-01-23T02:26:08;15.23;;;12.03;;
7116;SDS011;3600;48.568;7.870;2023-01-23T02:31:10;14.17;;;12.10;;
7116;SDS011;3600;48.568;7.870;2023-01-23T02:36:05;13.93;;;11.33;;
7116;SDS011;3600;48.568;7.870;2023-01-23T02:38:36;15.73;;;12.53;;
7116;SDS011;3600;48.568;7.870;2023-01-23T02:41:14;14.93;;;12.00;;
7116;SDS011;3600;48.568;7.870;2023-01-23T02:43:43;15.07;;;12.03;;
7116;SDS011;3600;48.568;7.870;2023-01-23T02:46:10;12.57;;;10.57;;
7116;SDS011;3600;48.568;7.870;2023-01-23T02:48:37;14.07;;;12.13;;
7116;SDS011;3600;48.568;7.870;2023-01-23T02:51:09;16.17;;;12.47;;
7116;SDS011;3600;48.568;7.870;2023-01-23T02:53:36;14.80;;;11.80;;
7116;SDS011;3600;48.568;7.870;2023-01-23T02:56:03;14.47;;;11.53;;
7116;SDS011;3600;48.568;7.870;2023-01-23T02:58:30;14.17;;;11.70;;
7116;SDS011;3600;48.568;7.870;2023-01-23T03:01:15;14.27;;;11.77;;
7116;SDS011;3600;48.568;7.870;2023-01-23T03:03:42;15.97;;;11.90;;
7116;SDS011;3600;48.568;7.870;2023-01-23T03:06:09;14.17;;;11.70;;
7116;SDS011;3600;48.568;7.870;2023-01-23T03:08:36;13.57;;;11.10;;
7116;SDS011;3600;48.568;7.870;2023-01-23T03:11:13;13.33;;;10.80;;
7116;SDS011;3600;48.568;7.870;2023-01-23T03:13:42;12.67;;;11.10;;
7116;SDS011;3600;48.568;7.870;2023-01-23T03:16:10;15.07;;;11.00;;
7116;SDS011;3600;48.568;7.870;2023-01-23T03:18:37;13.17;;;10.43;;
7116;SDS011;3600;48.568;7.870;2023-01-23T03:21:19;13.30;;;11.73;;
7116;SDS011;3600;48.568;7.870;2023-01-23T03:23:45;14.37;;;10.93;;
7116;SDS011;3600;48.568;7.870;2023-01-23T03:26:13;15.83;;;12.37;;
7116;SDS011;3600;48.568;7.870;2023-01-23T03:28:40;15.20;;;11.70;;
7116;SDS011;3600;48.568;7.870;2023-01-23T03:31:26;14.87;;;11.33;;
7116;SDS011;3600;48.568;7.870;2023-01-23T03:33:53;12.40;;;10.60;;
7116;SDS011;3600;48.568;7.870;2023-01-23T03:36:19;13.00;;;11.27;;
7116;SDS011;3600;48.568;7.870;2023-01-23T03:38:46;13.57;;;10.27;;
7116;SDS011;3600;48.568;7.870;2023-01-23T03:41:32;13.47;;;11.10;;
7116;SDS011;3600;48.568;7.870;2023-01-23T03:43:58;14.37;;;10.63;;
7116;SDS011;3600;48.568;7.870;2023-01-23T03:46:25;12.50;;;9.90;;
7116;SDS011;3600;48.568;7.870;2023-01-23T03:48:52;13.20;;;9.90;;
7116;SDS011;3600;48.568;7.870;2023-01-23T03:51:18;10.40;;;9.23;;
7116;SDS011;3600;48.568;7.870;2023-01-23T03:53:45;12.00;;;8.93;;
7116;SDS011;3600;48.568;7.870;2023-01-23T03:56:12;11.37;;;9.80;;
7116;SDS011;3600;48.568;7.870;2023-01-23T03:58:38;13.90;;;10.70;;
7116;SDS011;3600;48.568;7.870;2023-01-23T04:01:06;11.70;;;9.77;;
7116;SDS011;3600;48.568;7.870;2023-01-23T04:03:33;12.93;;;9.50;;
7116;SDS011;3600;48.568;7.870;2023-01-23T04:06:01;9.50;;;8.47;;
7116;SDS011;3600;48.568;7.870;2023-01-23T04:08:28;10.70;;;9.40;;
7116;SDS011;3600;48.568;7.870;2023-01-23T04:11:04;12.87;;;10.13;;
7116;SDS011;3600;48.568;7.870;2023-01-23T04:13:33;12.20;;;9.17;;
7116;SDS011;3600;48.568;7.870;2023-01-23T04:16:00;11.47;;;9.57;;
7116;SDS011;3600;48.568;7.870;2023-01-23T04:18:28;13.03;;;10.10;;
7116;SDS011;3600;48.568;7.870;2023-01-23T04:20:55;13.33;;;9.93;;
7116;SDS011;3600;48.568;7.870;2023-01-23T04:23:22;10.13;;;8.77;;
7116;SDS011;3600;48.568;7.870;2023-01-23T04:25:49;12.23;;;9.20;;
7116;SDS011;3600;48.568;7.870;2023-01-23T04:28:17;12.43;;;9.77;;
7116;SDS011;3600;48.568;7.870;2023-01-23T04:30:44;11.70;;;9.60;;
7116;SDS011;3600;48.568;7.870;2023-01-23T04:33:11;11.13;;;8.60;;
7116;SDS011;3600;48.568;7.870;2023-01-23T04:35:38;11.40;;;9.67;;
7116;SDS011;3600;48.568;7.870;2023-01-23T04:38:05;13.37;;;9.77;;
7116;SDS011;3600;48.568;7.870;2023-01-23T04:40:31;11.67;;;9.53;;
7116;SDS011;3600;48.568;7.870;2023-01-23T04:42:58;12.63;;;10.43;;
7116;SDS011;3600;48.568;7.870;2023-01-23T04:45:25;12.00;;;9.17;;
7116;SDS011;3600;48.568;7.870;2023-01-23T04:47:51;13.50;;;9.93;;
7116;SDS011;3600;48.568;7.870;2023-01-23T04:50:18;13.60;;;10.80;;
7116;SDS011;3600;48.568;7.870;2023-01-23T04:52:45;13.57;;;9.90;;
7116;SDS011;3600;48.568;7.870;2023-01-23T04:55:12;13.67;;;10.47;;
7116;SDS011;3600;48.568;7.870;2023-01-23T04:57:39;13.40;;;10.50;;
7116;SDS011;3600;48.568;7.870;2023-01-23T05:00:06;11.70;;;10.03;;
7116;SDS011;3600;48.568;7.870;2023-01-23T05:02:34;13.80;;;10.90;;
7116;SDS011;3600;48.568;7.870;2023-01-23T05:05:01;13.17;;;10.60;;
7116;SDS011;3600;48.568;7.870;2023-01-23T05:07:28;15.60;;;10.93;;
7116;SDS011;3600;48.568;7.870;2023-01-23T05:09:55;13.90;;;10.40;;
7116;SDS011;3600;48.568;7.870;2023-01-23T05:12:21;15.53;;;11.93;;
7116;SDS011;3600;48.568;7.870;2023-01-23T05:14:48;14.77;;;11.20;;
7116;SDS011;3600;48.568;7.870;2023-01-23T05:17:15;15.60;;;11.13;;
7116;SDS011;3600;48.568;7.870;2023-01-23T05:19:41;16.73;;;12.37;;
7116;SDS011;3600;48.568;7.870;2023-01-23T05:22:08;14.67;;;11.60;;
7116;SDS011;3600;48.568;7.870;2023-01-23T05:24:35;14.13;;;10.67;;
7116;SDS011;3600;48.568;7.870;2023-01-23T05:27:01;15.07;;;9.97;;
7116;SDS011;3600;48.568;7.870;2023-01-23T05:29:28;13.07;;;10.90;;
7116;SDS011;3600;48.568;7.870;2023-01-23T05:31:55;13.17;;;9.77;;
7116;SDS011;3600;48.568;7.870;2023-01-23T05:34:22;13.40;;;10.17;;
7116;SDS011;3600;48.568;7.870;2023-01-23T05:36:49;14.03;;;10.10;;
7116;SDS011;3600;48.568;7.870;2023-01-23T05:39:15;12.63;;;9.90;;
7116;SDS011;3600;48.568;7.870;2023-01-23T05:41:42;11.07;;;9.67;;
7116;SDS011;3600;48.568;7.870;2023-01-23T05:44:09;12.33;;;9.33;;
7116;SDS011;3600;48.568;7.870;2023-01-23T05:46:35;12.60;;;10.10;;
7116;SDS011;3600;48.568;7.870;2023-01-23T05:49:02;12.97;;;10.47;;
7116;SDS011;3600;48.568;7.870;2023-01-23T05:51:29;12.57;;;9.90;;
7116;SDS011;3600;48.568;7.870;2023-01-23T05:53:59;11.57;;;9.70;;
7116;SDS011;3600;48.568;7.870;2023-01-23T05:56:26;13.17;;;9.87;;
7116;SDS011;3600;48.568;7.870;2023-01-23T05:58:53;12.23;;;9.50;;
7116;SDS011;3600;48.568;7.870;2023-01-23T06:01:20;12.83;;;9.53;;
7116;SDS011;3600;48.568;7.870;2023-01-23T06:03:47;13.80;;;10.50;;
7116;SDS011;3600;48.568;7.870;2023-01-23T06:06:14;13.23;;;11.00;;
7116;SDS011;3600;48.568;7.870;2023-01-23T06:08:41;12.97;;;10.50;;
7116;SDS011;3600;48.568;7.870;2023-01-23T06:11:08;13.40;;;10.13;;
7116;SDS011;3600;48.568;7.870;2023-01-23T06:13:34;13.70;;;10.27;;
7116;SDS011;3600;48.568;7.870;2023-01-23T06:16:01;13.57;;;10.23;;
7116;SDS011;3600;48.568;7.870;2023-01-23T06:18:28;14.33;;;10.67;;
7116;SDS011;3600;48.568;7.870;2023-01-23T06:20:59;15.53;;;12.07;;
7116;SDS011;3600;48.568;7.870;2023-01-23T06:23:27;13.20;;;11.43;;
7116;SDS011;3600;48.568;7.870;2023-01-23T06:25:57;12.43;;;10.10;;
7116;SDS011;3600;48.568;7.870;2023-01-23T06:28:24;11.40;;;10.00;;
7116;SDS011;3600;48.568;7.870;2023-01-23T06:30:51;14.27;;;11.10;;
7116;SDS011;3600;48.568;7.870;2023-01-23T06:33:18;15.23;;;10.47;;
7116;SDS011;3600;48.568;7.870;2023-01-23T06:35:45;14.13;;;10.73;;
7116;SDS011;3600;48.568;7.870;2023-01-23T06:38:11;13.87;;;10.80;;
7116;SDS011;3600;48.568;7.870;2023-01-23T06:40:38;12.93;;;9.87;;
7116;SDS011;3600;48.568;7.870;2023-01-23T06:43:05;14.57;;;10.63;;
7116;SDS011;3600;48.568;7.870;2023-01-23T06:45:31;13.10;;;9.80;;
7116;SDS011;3600;48.568;7.870;2023-01-23T06:47:58;15.20;;;10.30;;
7116;SDS011;3600;48.568;7.870;2023-01-23T06:50:25;14.77;;;11.10;;
7116;SDS011;3600;48.568;7.870;2023-01-23T06:52:52;13.90;;;10.33;;
7116;SDS011;3600;48.568;7.870;2023-01-23T06:55:18;14.80;;;10.40;;
7116;SDS011;3600;48.568;7.870;2023-01-23T06:57:46;13.47;;;10.60;;
7116;SDS011;3600;48.568;7.870;2023-01-23T07:00:13;14.40;;;9.77;;
7116;SDS011;3600;48.568;7.870;2023-01-23T07:02:40;14.47;;;11.07;;
7116;SDS011;3600;48.568;7.870;2023-01-23T07:05:10;15.10;;;11.40;;
7116;SDS011;3600;48.568;7.870;2023-01-23T07:07:37;16.63;;;11.17;;
7116;SDS011;3600;48.568;7.870;2023-01-23T07:10:04;14.33;;;10.70;;
7116;SDS011;3600;48.568;7.870;2023-01-23T07:12:31;15.30;;;10.13;;
7116;SDS011;3600;48.568;7.870;2023-01-23T07:14:58;14.43;;;10.43;;
7116;SDS011;3600;48.568;7.870;2023-01-23T07:17:24;14.27;;;10.60;;
7116;SDS011;3600;48.568;7.870;2023-01-23T07:19:51;14.70;;;10.00;;
7116;SDS011;3600;48.568;7.870;2023-01-23T07:22:19;14.73;;;11.03;;
7116;SDS011;3600;48.568;7.870;2023-01-23T07:24:46;15.87;;;11.03;;
7116;SDS011;3600;48.568;7.870;2023-01-23T07:27:13;14.33;;;10.63;;
7116;SDS011;3600;48.568;7.870;2023-01-23T07:29:41;12.80;;;10.10;;
7116;SDS011;3600;48.568;7.870;2023-01-23T07:32:08;14.93;;;10.43;;
7116;SDS011;3600;48.568;7.870;2023-01-23T07:34:36;12.73;;;10.57;;
7116;SDS011;3600;48.568;7.870;2023-01-23T07:37:03;13.00;;;10.07;;
7116;SDS011;3600;48.568;7.870;2023-01-23T07:39:30;13.43;;;10.43;;
7116;SDS011;3600;48.568;7.870;2023-01-23T07:41:56;16.13;;;11.33;;
7116;SDS011;3600;48.568;7.870;2023-01-23T07:44:23;13.77;;;10.30;;
7116;SDS011;3600;48.568;7.870;2023-01-23T07:46:50;15.23;;;10.70;;
7116;SDS011;3600;48.568;7.870;2023-01-23T07:49:17;14.30;;;10.37;;
7116;SDS011;3600;48.568;7.870;2023-01-23T07:51:43;12.43;;;10.43;;
7116;SDS011;3600;48.568;7.870;2023-01-23T07:54:10;14.20;;;10.77;;
7116;SDS011;3600;48.568;7.870;2023-01-23T07:56:37;15.10;;;10.47;;
7116;SDS011;3600;48.568;7.870;2023-01-23T07:59:04;16.63;;;11.47;;
7116;SDS011;3600;48.568;7.870;2023-01-23T08:01:30;15.67;;;11.17;;
7116;SDS011;3600;48.568;7.870;2023-01-23T08:03:57;19.13;;;13.13;;
7116;SDS011;3600;48.568;7.870;2023-01-23T08:06:24;16.20;;;11.87;;
7116;SDS011;3600;48.568;7.870;2023-01-23T08:08:50;19.20;;;13.47;;
7116;SDS011;3600;48.568;7.870;2023-01-23T08:11:17;17.50;;;12.23;;
7116;SDS011;3600;48.568;7.870;2023-01-23T08:13:47;15.63;;;11.80;;
7116;SDS011;3600;48.568;7.870;2023-01-23T08:16:15;19.03;;;13.33;;
7116;SDS011;3600;48.568;7.870;2023-01-23T08:18:42;17.77;;;12.33;;
7116;SDS011;3600;48.568;7.870;2023-01-23T08:21:09;15.90;;;12.37;;
7116;SDS011;3600;48.568;7.870;2023-01-23T08:23:36;19.37;;;12.50;;
7116;SDS011;3600;48.568;7.870;2023-01-23T08:26:04;16.47;;;11.80;;
7116;SDS011;3600;48.568;7.870;2023-01-23T08:28:33;15.63;;;11.73;;
7116;SDS011;3600;48.568;7.870;2023-01-23T08:31:02;15.80;;;11.67;;
7116;SDS011;3600;48.568;7.870;2023-01-23T08:33:32;15.20;;;10.83;;
7116;SDS011;3600;48.568;7.870;2023-01-23T08:35:59;14.17;;;11.13;;
7116;SDS011;3600;48.568;7.870;2023-01-23T08:38:26;17.73;;;11.80;;
7116;SDS011;3600;48.568;7.870;2023-01-23T08:40:53;15.03;;;10.63;;
7116;SDS011;3600;48.568;7.870;2023-01-23T08:43:24;12.97;;;10.37;;
7116;SDS011;3600;48.568;7.870;2023-01-23T08:45:52;15.33;;;10.57;;
7116;SDS011;3600;48.568;7.870;2023-01-23T08:48:21;15.70;;;10.47;;
7116;SDS011;3600;48.568;7.870;2023-01-23T08:50:49;14.27;;;10.37;;
7116;SDS011;3600;48.568;7.870;2023-01-23T08:53:16;14.77;;;11.00;;
7116;SDS011;3600;48.568;7.870;2023-01-23T08:55:43;15.37;;;11.67;;
7116;SDS011;3600;48.568;7.870;2023-01-23T08:58:10;14.10;;;10.43;;
7116;SDS011;3600;48.568;7.870;2023-01-23T09:00:38;15.13;;;11.13;;
7116;SDS011;3600;48.568;7.870;2023-01-23T09:03:05;14.90;;;10.87;;
7116;SDS011;3600;48.568;7.870;2023-01-23T09:05:35;13.60;;;10.10;;
7116;SDS011;3600;48.568;7.870;2023-01-23T09:08:02;12.60;;;10.37;;
7116;SDS011;3600;48.568;7.870;2023-01-23T09:10:28;14.63;;;10.20;;
7116;SDS011;3600;48.568;7.870;2023-01-23T09:12:55;13.40;;;10.40;;
7116;SDS011;3600;48.568;7.870;2023-01-23T09:15:22;15.83;;;11.77;;
7116;SDS011;3600;48.568;7.870;2023-01-23T09:17:49;16.30;;;10.93;;
7116;SDS011;3600;48.568;7.870;2023-01-23T09:20:16;13.63;;;10.53;;
7116;SDS011;3600;48.568;7.870;2023-01-23T09:22:43;13.50;;;10.53;;
7116;SDS011;3600;48.568;7.870;2023-01-23T09:25:10;16.03;;;10.83;;
7116;SDS011;3600;48.568;7.870;2023-01-23T09:27:37;13.67;;;10.53;;
7116;SDS011;3600;48.568;7.870;2023-01-23T09:30:05;14.03;;;10.77;;
7116;SDS011;3600;48.568;7.870;2023-01-23T09:32:32;14.13;;;10.60;;
7116;SDS011;3600;48.568;7.870;2023-01-23T09:34:59;14.40;;;10.73;;
7116;SDS011;3600;48.568;7.870;2023-01-23T09:37:28;14.80;;;11.63;;
7116;SDS011;3600;48.568;7.870;2023-01-23T09:40:16;16.77;;;11.20;;
7116;SDS011;3600;48.568;7.870;2023-01-23T09:42:44;15.23;;;10.87;;
7116;SDS011;3600;48.568;7.870;2023-01-23T09:45:14;14.83;;;10.97;;
7116;SDS011;3600;48.568;7.870;2023-01-23T09:47:49;14.30;;;10.23;;
7116;SDS011;3600;48.568;7.870;2023-01-23T09:50:39;13.10;;;10.27;;
7116;SDS011;3600;48.568;7.870;2023-01-23T09:53:18;14.33;;;10.90;;
7116;SDS011;3600;48.568;7.870;2023-01-23T09:55:58;15.30;;;11.23;;
7116;SDS011;3600;48.568;7.870;2023-01-23T09:58:30;14.40;;;10.90;;
7116;SDS011;3600;48.568;7.870;2023-01-23T10:01:02;14.47;;;9.93;;
7116;SDS011;3600;48.568;7.870;2023-01-23T10:03:29;14.60;;;10.27;;
7116;SDS011;3600;48.568;7.870;2023-01-23T10:11:07;13.07;;;10.97;;
7116;SDS011;3600;48.568;7.870;2023-01-23T10:19:50;14.83;;;9.80;;
7116;SDS011;3600;48.568;7.870;2023-01-23T10:22:29;13.37;;;10.10;;
7116;SDS011;3600;48.568;7.870;2023-01-23T10:25:00;14.50;;;10.47;;
7116;SDS011;3600;48.568;7.870;2023-01-23T10:27:37;15.37;;;11.33;;
7116;SDS011;3600;48.568;7.870;2023-01-23T10:37:54;15.67;;;11.07;;
7116;SDS011;3600;48.568;7.870;2023-01-23T10:40:27;13.77;;;10.97;;
7116;SDS011;3600;48.568;7.870;2023-01-23T10:43:14;14.23;;;10.97;;
7116;SDS011;3600;48.568;7.870;2023-01-23T10:45:42;12.63;;;10.13;;
7116;SDS011;3600;48.568;7.870;2023-01-23T10:48:25;13.07;;;10.63;;
7116;SDS011;3600;48.568;7.870;2023-01-23T10:50:59;16.03;;;11.30;;
7116;SDS011;3600;48.568;7.870;2023-01-23T10:53:26;13.93;;;9.53;;
7116;SDS011;3600;48.568;7.870;2023-01-23T10:55:54;13.07;;;10.20;;
7116;SDS011;3600;48.568;7.870;2023-01-23T10:58:37;15.33;;;10.87;;
7116;SDS011;3600;48.568;7.870;2023-01-23T11:01:16;13.77;;;9.90;;
7116;SDS011;3600;48.568;7.870;2023-01-23T11:03:58;13.90;;;10.30;;
7116;SDS011;3600;48.568;7.870;2023-01-23T11:06:36;14.90;;;10.73;;
7116;SDS011;3600;48.568;7.870;2023-01-23T11:09:03;14.27;;;10.07;;
7116;SDS011;3600;48.568;7.870;2023-01-23T11:11:43;13.30;;;9.50;;
7116;SDS011;3600;48.568;7.870;2023-01-23T11:14:13;13.20;;;9.30;;
7116;SDS011;3600;48.568;7.870;2023-01-23T11:16:56;14.80;;;11.00;;
7116;SDS011;3600;48.568;7.870;2023-01-23T11:19:42;14.97;;;11.30;;
7116;SDS011;3600;48.568;7.870;2023-01-23T11:22:27;13.50;;;10.00;;
7116;SDS011;3600;48.568;7.870;2023-01-23T11:24:59;16.07;;;10.20;;
7116;SDS011;3600;48.568;7.870;2023-01-23T11:27:28;14.97;;;10.50;;
7116;SDS011;3600;48.568;7.870;2023-01-23T11:39:02;15.37;;;11.10;;
7116;SDS011;3600;48.568;7.870;2023-01-23T11:41:43;15.57;;;10.73;;
7116;SDS011;3600;48.568;7.870;2023-01-23T11:44:18;22.90;;;11.97;;
7116;SDS011;3600;48.568;7.870;2023-01-23T11:54:42;15.97;;;11.20;;
7116;SDS011;3600;48.568;7.870;2023-01-23T11:57:32;16.37;;;10.97;;
7116;SDS011;3600;48.568;7.870;2023-01-23T12:00:04;15.80;;;11.07;;
7116;SDS011;3600;48.568;7.870;2023-01-23T12:19:17;15.77;;;11.70;;
7116;SDS011;3600;48.568;7.870;2023-01-23T12:24:57;13.70;;;10.10;;
7116;SDS011;3600;48.568;7.870;2023-01-23T12:27:40;15.40;;;10.17;;
7116;SDS011;3600;48.568;7.870;2023-01-23T12:32:51;14.20;;;9.80;;
7116;SDS011;3600;48.568;7.870;2023-01-23T12:35:47;15.70;;;10.23;;
7116;SDS011;3600;48.568;7.870;2023-01-23T12:41:45;14.57;;;10.57;;
7116;SDS011;3600;48.568;7.870;2023-01-23T12:44:33;15.63;;;10.40;;
7116;SDS011;3600;48.568;7.870;2023-01-23T12:47:04;14.17;;;10.73;;
7116;SDS011;3600;48.568;7.870;2023-01-23T12:49:43;14.47;;;10.03;;
7116;SDS011;3600;48.568;7.870;2023-01-23T12:55:38;16.43;;;9.40;;
7116;SDS011;3600;48.568;7.870;2023-01-23T12:58:14;14.63;;;10.00;;
7116;SDS011;3600;48.568;7.870;2023-01-23T13:06:07;12.93;;;9.63;;
7116;SDS011;3600;48.568;7.870;2023-01-23T13:14:50;13.07;;;9.93;;
7116;SDS011;3600;48.568;7.870;2023-01-23T13:17:40;15.63;;;10.97;;
7116;SDS011;3600;48.568;7.870;2023-01-23T13:28:50;11.73;;;9.47;;
7116;SDS011;3600;48.568;7.870;2023-01-23T13:31:26;11.63;;;9.20;;
7116;SDS011;3600;48.568;7.870;2023-01-23T13:33:59;12.23;;;9.20;;
7116;SDS011;3600;48.568;7.870;2023-01-23T13:36:50;11.13;;;9.23;;
7116;SDS011;3600;48.568;7.870;2023-01-23T13:44:37;12.63;;;8.73;;
7116;SDS011;3600;48.568;7.870;2023-01-23T13:47:59;12.47;;;8.70;;
7116;SDS011;3600;48.568;7.870;2023-01-23T13:51:19;12.13;;;9.37;;
7116;SDS011;3600;48.568;7.870;2023-01-23T13:54:01;13.10;;;8.90;;
7116;SDS011;3600;48.568;7.870;2023-01-23T13:57:01;13.60;;;9.40;;
7116;SDS011;3600;48.568;7.870;2023-01-23T13:59:46;13.47;;;9.13;;
7116;SDS011;3600;48.568;7.870;2023-01-23T14:02:37;13.90;;;9.17;;
7116;SDS011;3600;48.568;7.870;2023-01-23T14:05:38;13.10;;;9.33;;
7116;SDS011;3600;48.568;7.870;2023-01-23T14:08:20;11.23;;;9.10;;
7116;SDS011;3600;48.568;7.870;2023-01-23T14:11:09;14.83;;;9.87;;
7116;SDS011;3600;48.568;7.870;2023-01-23T14:13:55;13.47;;;9.53;;
7116;SDS011;3600;48.568;7.870;2023-01-23T14:16:58;11.80;;;9.50;;
7116;SDS011;3600;48.568;7.870;2023-01-23T14:22:42;12.33;;;9.07;;
7116;SDS011;3600;48.568;7.870;2023-01-23T14:25:13;10.33;;;8.50;;
7116;SDS011;3600;48.568;7.870;2023-01-23T14:27:43;12.17;;;9.50;;
7116;SDS011;3600;48.568;7.870;2023-01-23T14:30:23;13.60;;;10.07;;
7116;SDS011;3600;48.568;7.870;2023-01-23T14:32:52;13.03;;;9.33;;
7116;SDS011;3600;48.568;7.870;2023-01-23T14:35:29;12.57;;;9.17;;
7116;SDS011;3600;48.568;7.870;2023-01-23T14:37:58;13.30;;;8.47;;
7116;SDS011;3600;48.568;7.870;2023-01-23T14:40:27;13.97;;;9.97;;
7116;SDS011;3600;48.568;7.870;2023-01-23T14:43:08;11.77;;;8.57;;
7116;SDS011;3600;48.568;7.870;2023-01-23T14:45:56;11.33;;;8.77;;
7116;SDS011;3600;48.568;7.870;2023-01-23T14:48:27;14.30;;;10.17;;
7116;SDS011;3600;48.568;7.870;2023-01-23T14:51:02;12.07;;;9.50;;
7116;SDS011;3600;48.568;7.870;2023-01-23T14:53:32;10.87;;;8.67;;
7116;SDS011;3600;48.568;7.870;2023-01-23T14:55:59;11.77;;;8.63;;
7116;SDS011;3600;48.568;7.870;2023-01-23T14:58:27;11.73;;;8.53;;
7116;SDS011;3600;48.568;7.870;2023-01-23T15:00:55;12.40;;;9.13;;
7116;SDS011;3600;48.568;7.870;2023-01-23T15:06:02;10.77;;;8.30;;
7116;SDS011;3600;48.568;7.870;2023-01-23T15:08:33;12.27;;;8.37;;
7116;SDS011;3600;48.568;7.870;2023-01-23T15:11:01;11.70;;;8.30;;
7116;SDS011;3600;48.568;7.870;2023-01-23T15:13:33;12.37;;;8.93;;
7116;SDS011;3600;48.568;7.870;2023-01-23T15:16:05;11.83;;;8.77;;
7116;SDS011;3600;48.568;7.870;2023-01-23T15:21:36;13.17;;;8.97;;
7116;SDS011;3600;48.568;7.870;2023-01-23T15:26:35;11.13;;;8.30;;
7116;SDS011;3600;48.568;7.870;2023-01-23T15:39:37;9.80;;;8.37;;
7116;SDS011;3600;48.568;7.870;2023-01-23T15:44:37;10.33;;;8.33;;
7116;SDS011;3600;48.568;7.870;2023-01-23T15:47:04;10.67;;;8.53;;
7116;SDS011;3600;48.568;7.870;2023-01-23T15:49:32;11.37;;;8.03;;
7116;SDS011;3600;48.568;7.870;2023-01-23T15:52:01;12.37;;;8.80;;
7116;SDS011;3600;48.568;7.870;2023-01-23T15:54:48;10.77;;;7.90;;
7116;SDS011;3600;48.568;7.870;2023-01-23T15:57:17;12.20;;;8.93;;
7116;SDS011;3600;48.568;7.870;2023-01-23T15:59:44;10.03;;;8.50;;
7116;SDS011;3600;48.568;7.870;2023-01-23T16:02:15;11.03;;;8.13;;
7116;SDS011;3600;48.568;7.870;2023-01-23T16:04:56;10.77;;;8.23;;
7116;SDS011;3600;48.568;7.870;2023-01-23T16:07:25;11.30;;;8.77;;
7116;SDS011;3600;48.568;7.870;2023-01-23T16:10:04;12.50;;;7.90;;
7116;SDS011;3600;48.568;7.870;2023-01-23T16:12:54;11.30;;;8.47;;
7116;SDS011;3600;48.568;7.870;2023-01-23T16:15:23;10.30;;;7.97;;
7116;SDS011;3600;48.568;7.870;2023-01-23T16:17:52;10.03;;;8.30;;
7116;SDS011;3600;48.568;7.870;2023-01-23T16:20:26;11.67;;;8.87;;
7116;SDS011;3600;48.568;7.870;2023-01-23T16:23:00;11.50;;;9.23;;
7116;SDS011;3600;48.568;7.870;2023-01-23T16:25:40;12.33;;;9.00;;
7116;SDS011;3600;48.568;7.870;2023-01-23T16:28:12;11.53;;;8.70;;
7116;SDS011;3600;48.568;7.870;2023-01-23T16:30:44;14.77;;;10.00;;
7116;SDS011;3600;48.568;7.870;2023-01-23T16:33:12;16.77;;;11.57;;
7116;SDS011;3600;48.568;7.870;2023-01-23T16:35:39;15.20;;;10.20;;
7116;SDS011;3600;48.568;7.870;2023-01-23T16:38:08;13.83;;;10.07;;
7116;SDS011;3600;48.568;7.870;2023-01-23T16:40:48;13.63;;;10.87;;
7116;SDS011;3600;48.568;7.870;2023-01-23T16:43:18;13.73;;;10.93;;
7116;SDS011;3600;48.568;7.870;2023-01-23T16:45:46;13.83;;;10.13;;
7116;SDS011;3600;48.568;7.870;2023-01-23T16:48:13;11.67;;;9.37;;
7116;SDS011;3600;48.568;7.870;2023-01-23T16:50:52;13.60;;;9.63;;
7116;SDS011;3600;48.568;7.870;2023-01-23T16:53:24;10.97;;;8.90;;
7116;SDS011;3600;48.568;7.870;2023-01-23T16:55:54;10.93;;;8.37;;
7116;SDS011;3600;48.568;7.870;2023-01-23T16:58:24;11.97;;;9.07;;
7116;SDS011;3600;48.568;7.870;2023-01-23T17:00:56;10.63;;;9.03;;
7116;SDS011;3600;48.568;7.870;2023-01-23T17:03:27;10.97;;;8.87;;
7116;SDS011;3600;48.568;7.870;2023-01-23T17:05:58;11.17;;;9.20;;
7116;SDS011;3600;48.568;7.870;2023-01-23T17:08:26;12.97;;;9.87;;
7116;SDS011;3600;48.568;7.870;2023-01-23T17:10:53;9.80;;;8.70;;
7116;SDS011;3600;48.568;7.870;2023-01-23T17:13:23;11.33;;;8.90;;
7116;SDS011;3600;48.568;7.870;2023-01-23T17:15:52;12.93;;;8.87;;
7116;SDS011;3600;48.568;7.870;2023-01-23T17:18:21;9.80;;;8.03;;